createdAt,value
2018-03-17T00:00:12.200Z,4.38
2018-03-17T00:01:14.176Z,4.38
2018-03-17T00:02:14.909Z,4.38
2018-03-17T00:03:16.270Z,4.38
2018-03-17T00:04:17.003Z,4.38
2018-03-17T00:05:17.844Z,4.38
2018-03-17T00:06:18.391Z,4.38
2018-03-17T00:07:19.341Z,4.38
2018-03-17T00:08:20.479Z,4.38
2018-03-17T00:09:21.832Z,4.38
2018-03-17T00:10:23.318Z,4.38
2018-03-17T00:11:23.894Z,4.38
2018-03-17T00:12:24.105Z,4.44
2018-03-17T00:13:26.480Z,4.38
2018-03-17T00:14:26.782Z,4.38
2018-03-17T00:15:28.136Z,4.38
2018-03-17T00:16:28.815Z,4.38
2018-03-17T00:17:29.703Z,4.38
2018-03-17T00:18:30.503Z,4.38
2018-03-17T00:19:31.385Z,4.38
2018-03-17T00:20:33.296Z,4.38
2018-03-17T00:21:34.215Z,4.38
2018-03-17T00:22:35.606Z,4.38
2018-03-17T00:23:35.993Z,4.38
2018-03-17T00:24:36.582Z,4.38
2018-03-17T00:25:38.758Z,4.38
2018-03-17T00:26:39.112Z,4.38
2018-03-17T00:27:40.125Z,4.38
2018-03-17T00:28:42.449Z,4.38
2018-03-17T00:29:44.964Z,4.38
2018-03-17T00:30:43.102Z,4.38
2018-03-17T00:31:44.432Z,4.38
2018-03-17T00:32:45.789Z,4.38
2018-03-17T00:33:45.835Z,4.38
2018-03-17T00:34:47.145Z,4.38
2018-03-17T00:35:50.576Z,4.44
2018-03-17T00:36:49.920Z,4.38
2018-03-17T00:37:52.666Z,4.38
2018-03-17T00:38:52.525Z,4.38
2018-03-17T00:39:52.940Z,4.38
2018-03-17T00:40:54.653Z,4.38
2018-03-17T00:41:55.911Z,4.38
2018-03-17T00:42:56.589Z,4.38
2018-03-17T00:43:57.762Z,4.38
2018-03-17T00:44:57.648Z,4.38
2018-03-17T00:45:58.689Z,4.38
2018-03-17T00:47:00.646Z,4.38
2018-03-17T00:48:01.300Z,4.38
2018-03-17T00:49:01.282Z,4.38
2018-03-17T00:50:03.693Z,4.38
2018-03-17T00:51:04.982Z,4.38
2018-03-17T00:52:04.052Z,4.38
2018-03-17T00:53:05.905Z,4.38
2018-03-17T00:54:07.392Z,4.38
2018-03-17T00:55:07.170Z,4.38
2018-03-17T00:56:10.680Z,4.38
2018-03-17T00:57:10.422Z,4.38
2018-03-17T00:58:12.366Z,4.38
2018-03-17T00:59:12.614Z,4.38
2018-03-17T01:00:13.685Z,4.38
2018-03-17T01:01:14.740Z,4.38
2018-03-17T01:02:15.126Z,4.38
2018-03-17T01:03:15.801Z,4.38
2018-03-17T01:04:17.104Z,4.38
2018-03-17T01:05:17.441Z,4.38
2018-03-17T01:06:19.796Z,4.38
2018-03-17T01:07:19.229Z,4.38
2018-03-17T01:08:21.216Z,4.38
2018-03-17T01:09:21.263Z,4.38
2018-03-17T01:10:22.199Z,4.38
2018-03-17T01:11:23.931Z,4.38
2018-03-17T01:12:24.630Z,4.38
2018-03-17T01:13:25.519Z,4.38
2018-03-17T01:14:27.056Z,4.38
2018-03-17T01:15:27.807Z,4.38
2018-03-17T01:16:29.624Z,4.38
2018-03-17T01:17:29.657Z,4.38
2018-03-17T01:18:31.421Z,4.38
2018-03-17T01:19:32.529Z,4.38
2018-03-17T01:20:33.345Z,4.38
2018-03-17T01:21:34.735Z,4.38
2018-03-17T01:22:36.102Z,4.38
2018-03-17T01:23:36.060Z,4.38
2018-03-17T01:24:37.261Z,4.38
2018-03-17T01:25:37.408Z,4.38
2018-03-17T01:26:39.486Z,4.38
2018-03-17T01:27:39.200Z,4.38
2018-03-17T01:28:40.223Z,4.38
2018-03-17T01:29:41.178Z,4.38
2018-03-17T01:30:42.221Z,4.38
2018-03-17T01:31:44.514Z,4.38
2018-03-17T01:32:44.246Z,4.38
2018-03-17T01:33:46.237Z,4.38
2018-03-17T01:34:47.003Z,4.38
2018-03-17T01:35:47.657Z,4.38
2018-03-17T01:36:50.312Z,4.38
2018-03-17T01:37:50.007Z,4.38
2018-03-17T01:38:51.121Z,4.38
2018-03-17T01:39:52.780Z,4.38
2018-03-17T01:40:53.632Z,4.38
2018-03-17T01:41:55.781Z,4.38
2018-03-17T01:42:56.334Z,4.38
2018-03-17T01:43:57.472Z,4.38
2018-03-17T01:44:59.030Z,4.38
2018-03-17T01:45:58.501Z,4.38
2018-03-17T01:47:02.768Z,4.38
2018-03-17T01:48:00.573Z,4.38
2018-03-17T01:49:01.525Z,4.38
2018-03-17T01:50:03.183Z,4.38
2018-03-17T01:51:03.914Z,4.38
2018-03-17T01:52:06.908Z,4.38
2018-03-17T01:53:06.635Z,4.38
2018-03-17T01:54:06.974Z,4.38
2018-03-17T01:55:07.928Z,4.38
2018-03-17T01:56:08.296Z,4.38
2018-03-17T01:57:11.938Z,4.38
2018-03-17T01:58:10.224Z,4.38
2018-03-17T01:59:11.338Z,4.38
2018-03-17T02:00:12.959Z,4.38
2018-03-17T02:01:13.042Z,4.38
2018-03-17T02:02:15.230Z,4.38
2018-03-17T02:03:15.051Z,4.38
2018-03-17T02:04:16.104Z,4.38
2018-03-17T02:05:16.995Z,4.38
2018-03-17T02:06:18.034Z,4.38
2018-03-17T02:07:19.410Z,4.38
2018-03-17T02:08:20.038Z,4.38
2018-03-17T02:09:21.576Z,4.38
2018-03-17T02:10:22.680Z,4.38
2018-03-17T02:11:23.060Z,4.38
2018-03-17T02:12:24.513Z,4.38
2018-03-17T02:13:25.248Z,4.38
2018-03-17T02:14:26.099Z,4.38
2018-03-17T02:15:27.843Z,4.38
2018-03-17T02:16:28.836Z,4.38
2018-03-17T02:17:31.060Z,4.38
2018-03-17T02:18:30.914Z,4.38
2018-03-17T02:19:33.314Z,4.31
2018-03-17T02:20:33.480Z,4.38
2018-03-17T02:21:33.552Z,4.38
2018-03-17T02:22:35.528Z,4.38
2018-03-17T02:23:35.526Z,4.38
2018-03-17T02:24:37.151Z,4.38
2018-03-17T02:25:37.584Z,4.31
2018-03-17T02:26:39.138Z,4.38
2018-03-17T02:27:40.604Z,4.38
2018-03-17T02:28:40.469Z,4.38
2018-03-17T02:29:41.733Z,4.38
2018-03-17T02:30:42.452Z,4.31
2018-03-17T02:31:43.737Z,4.38
2018-03-17T02:32:44.258Z,4.31
2018-03-17T02:33:44.906Z,4.31
2018-03-17T02:34:46.833Z,4.31
2018-03-17T02:35:47.590Z,4.31
2018-03-17T02:36:48.814Z,4.31
2018-03-17T02:37:50.741Z,4.38
2018-03-17T02:38:50.777Z,4.38
2018-03-17T02:39:52.384Z,4.31
2018-03-17T02:40:53.068Z,4.38
2018-03-17T02:41:53.962Z,4.31
2018-03-17T02:42:54.769Z,4.31
2018-03-17T02:43:55.770Z,4.31
2018-03-17T02:44:56.834Z,4.38
2018-03-17T02:45:57.518Z,4.31
2018-03-17T02:46:58.710Z,4.31
2018-03-17T02:48:03.605Z,4.31
2018-03-17T02:49:01.584Z,4.31
2018-03-17T02:50:02.419Z,4.31
2018-03-17T02:51:03.563Z,4.31
2018-03-17T02:53:09.004Z,4.31
2018-03-17T02:53:17.802Z,4.38
2018-03-17T02:54:15.816Z,4.31
2018-03-17T02:55:15.730Z,4.31
2018-03-17T02:56:16.599Z,4.31
2018-03-17T02:57:45.525Z,4.31
2018-03-17T02:58:18.234Z,4.31
2018-03-17T02:59:19.245Z,4.31
2018-03-17T03:00:20.477Z,4.31
2018-03-17T03:01:21.778Z,4.31
2018-03-17T03:02:22.529Z,4.31
2018-03-17T03:03:23.613Z,4.31
2018-03-17T03:04:24.393Z,4.31
2018-03-17T03:05:25.582Z,4.31
2018-03-17T03:06:25.867Z,4.31
2018-03-17T03:07:26.912Z,4.31
2018-03-17T03:08:28.580Z,4.31
2018-03-17T03:09:28.927Z,4.31
2018-03-17T03:10:29.884Z,4.31
2018-03-17T03:11:31.611Z,4.31
2018-03-17T03:12:32.644Z,4.31
2018-03-17T03:13:34.966Z,4.31
2018-03-17T03:14:34.573Z,4.31
2018-03-17T03:15:36.303Z,4.31
2018-03-17T03:16:37.034Z,4.31
2018-03-17T03:17:37.354Z,4.31
2018-03-17T03:18:38.978Z,4.31
2018-03-17T03:19:40.468Z,4.31
2018-03-17T03:20:41.658Z,4.31
2018-03-17T03:21:41.752Z,4.31
2018-03-17T03:22:42.712Z,4.31
2018-03-17T03:23:43.442Z,4.31
2018-03-17T03:24:44.170Z,4.31
2018-03-17T03:25:45.774Z,4.31
2018-03-17T03:26:47.505Z,4.31
2018-03-17T03:27:49.123Z,4.31
2018-03-17T03:28:49.802Z,4.31
2018-03-17T03:29:49.857Z,4.31
2018-03-17T03:30:50.839Z,4.31
2018-03-17T03:31:51.435Z,4.31
2018-03-17T03:32:53.214Z,4.31
2018-03-17T03:33:55.932Z,4.31
2018-03-17T03:34:55.236Z,4.31
2018-03-17T03:35:56.112Z,4.31
2018-03-17T03:36:56.260Z,4.31
2018-03-17T03:37:57.264Z,4.31
2018-03-17T03:38:58.646Z,4.31
2018-03-17T03:40:01.265Z,4.31
2018-03-17T03:41:00.279Z,4.31
2018-03-17T03:42:02.350Z,4.25
2018-03-17T03:43:03.480Z,4.31
2018-03-17T03:44:03.808Z,4.31
2018-03-17T03:45:04.478Z,4.31
2018-03-17T03:46:05.752Z,4.31
2018-03-17T03:47:07.794Z,4.31
2018-03-17T03:48:08.134Z,4.25
2018-03-17T03:49:12.532Z,4.25
2018-03-17T03:50:10.271Z,4.31
2018-03-17T03:51:10.834Z,4.31
2018-03-17T03:52:12.610Z,4.25
2018-03-17T03:53:12.865Z,4.31
2018-03-17T03:54:14.448Z,4.31
2018-03-17T03:55:14.840Z,4.31
2018-03-17T03:56:18.351Z,4.25
2018-03-17T03:57:18.094Z,4.25
2018-03-17T03:58:20.472Z,4.25
2018-03-17T03:59:20.803Z,4.31
2018-03-17T04:00:21.696Z,4.25
2018-03-17T04:01:21.709Z,4.25
2018-03-17T04:02:23.609Z,4.25
2018-03-17T04:03:24.445Z,4.25
2018-03-17T04:04:25.093Z,4.25
2018-03-17T04:05:25.727Z,4.25
2018-03-17T04:06:27.874Z,4.31
2018-03-17T04:07:27.456Z,4.25
2018-03-17T04:08:28.584Z,4.25
2018-03-17T04:09:29.894Z,4.25
2018-03-17T04:10:30.546Z,4.25
2018-03-17T04:11:32.128Z,4.25
2018-03-17T04:12:32.265Z,4.25
2018-03-17T04:13:33.927Z,4.25
2018-03-17T04:14:34.626Z,4.25
2018-03-17T04:15:35.876Z,4.25
2018-03-17T04:16:36.092Z,4.25
2018-03-17T04:17:38.792Z,4.25
2018-03-17T04:18:38.413Z,4.25
2018-03-17T04:19:40.798Z,4.25
2018-03-17T04:20:42.555Z,4.25
2018-03-17T04:21:41.209Z,4.25
2018-03-17T04:22:43.350Z,4.25
2018-03-17T04:23:43.222Z,4.25
2018-03-17T04:24:45.542Z,4.25
2018-03-17T04:25:45.684Z,4.25
2018-03-17T04:26:46.662Z,4.25
2018-03-17T04:27:48.492Z,4.25
2018-03-17T04:28:49.050Z,4.25
2018-03-17T04:29:50.366Z,4.25
2018-03-17T04:30:51.720Z,4.25
2018-03-17T04:31:51.616Z,4.25
2018-03-17T04:32:53.426Z,4.25
2018-03-17T04:33:55.396Z,4.25
2018-03-17T04:34:56.132Z,4.25
2018-03-17T04:35:56.336Z,4.25
2018-03-17T04:36:56.128Z,4.25
2018-03-17T04:37:57.864Z,4.25
2018-03-17T04:38:58.141Z,4.25
2018-03-17T04:40:00.277Z,4.25
2018-03-17T04:41:00.353Z,4.25
2018-03-17T04:42:00.829Z,4.25
2018-03-17T04:43:02.534Z,4.25
2018-03-17T04:44:03.858Z,4.25
2018-03-17T04:45:04.247Z,4.25
2018-03-17T04:46:05.601Z,4.25
2018-03-17T04:47:07.307Z,4.25
2018-03-17T04:48:08.440Z,4.19
2018-03-17T04:49:09.296Z,4.25
2018-03-17T04:50:09.989Z,4.25
2018-03-17T04:51:10.597Z,4.25
2018-03-17T04:52:11.650Z,4.25
2018-03-17T04:53:13.836Z,4.25
2018-03-17T04:54:13.650Z,4.25
2018-03-17T04:55:15.948Z,4.25
2018-03-17T04:56:16.070Z,4.25
2018-03-17T04:57:18.072Z,4.19
2018-03-17T04:58:19.252Z,4.25
2018-03-17T04:59:20.686Z,4.25
2018-03-17T05:00:21.139Z,4.25
2018-03-17T05:01:21.914Z,4.25
2018-03-17T05:02:22.946Z,4.25
2018-03-17T05:03:24.561Z,4.25
2018-03-17T05:04:26.090Z,4.19
2018-03-17T05:05:25.648Z,4.19
2018-03-17T05:06:29.525Z,4.19
2018-03-17T05:07:26.950Z,4.19
2018-03-17T05:08:28.124Z,4.19
2018-03-17T05:09:28.920Z,4.19
2018-03-17T05:10:31.988Z,4.19
2018-03-17T05:11:31.806Z,4.19
2018-03-17T05:12:33.316Z,4.25
2018-03-17T05:13:33.724Z,4.19
2018-03-17T05:14:34.675Z,4.19
2018-03-17T05:15:37.000Z,4.19
2018-03-17T05:16:37.482Z,4.19
2018-03-17T05:17:38.520Z,4.19
2018-03-17T05:18:39.243Z,4.19
2018-03-17T05:19:40.317Z,4.19
2018-03-17T05:20:42.205Z,4.19
2018-03-17T05:21:42.968Z,4.19
2018-03-17T05:22:42.470Z,4.19
2018-03-17T05:23:43.622Z,4.19
2018-03-17T05:24:44.953Z,4.19
2018-03-17T05:25:47.150Z,4.19
2018-03-17T05:26:46.051Z,4.19
2018-03-17T05:27:47.153Z,4.19
2018-03-17T05:28:48.795Z,4.19
2018-03-17T05:29:49.582Z,4.19
2018-03-17T05:30:51.136Z,4.19
2018-03-17T05:31:52.555Z,4.19
2018-03-17T05:32:53.348Z,4.19
2018-03-17T05:33:54.353Z,4.19
2018-03-17T05:34:55.659Z,4.19
2018-03-17T05:35:56.092Z,4.19
2018-03-17T05:36:57.549Z,4.19
2018-03-17T05:37:57.605Z,4.19
2018-03-17T05:38:58.512Z,4.19
2018-03-17T05:39:59.771Z,4.19
2018-03-17T05:41:01.150Z,4.19
2018-03-17T05:42:01.929Z,4.19
2018-03-17T05:43:03.350Z,4.19
2018-03-17T05:44:03.945Z,4.19
2018-03-17T05:45:05.882Z,4.19
2018-03-17T05:46:05.873Z,4.19
2018-03-17T05:47:06.612Z,4.19
2018-03-17T05:48:08.165Z,4.19
2018-03-17T05:49:08.827Z,4.19
2018-03-17T05:50:09.325Z,4.19
2018-03-17T05:51:10.955Z,4.19
2018-03-17T05:52:15.943Z,4.19
2018-03-17T05:53:12.782Z,4.19
2018-03-17T05:54:14.445Z,4.19
2018-03-17T05:55:14.986Z,4.19
2018-03-17T05:56:16.168Z,4.19
2018-03-17T05:57:17.148Z,4.19
2018-03-17T05:58:17.411Z,4.19
2018-03-17T05:59:18.244Z,4.19
2018-03-17T06:00:19.474Z,4.19
2018-03-17T06:01:23.130Z,4.19
2018-03-17T06:02:21.785Z,4.19
2018-03-17T06:03:23.112Z,4.19
2018-03-17T06:04:25.307Z,4.19
2018-03-17T06:05:25.498Z,4.19
2018-03-17T06:06:26.288Z,4.19
2018-03-17T06:07:26.709Z,4.13
2018-03-17T06:08:27.127Z,4.19
2018-03-17T06:09:28.070Z,4.19
2018-03-17T06:10:29.948Z,4.19
2018-03-17T06:11:30.852Z,4.19
2018-03-17T06:12:31.802Z,4.19
2018-03-17T06:13:33.517Z,4.19
2018-03-17T06:14:35.192Z,4.19
2018-03-17T06:15:35.992Z,4.19
2018-03-17T06:16:36.832Z,4.19
2018-03-17T06:17:36.964Z,4.13
2018-03-17T06:18:38.103Z,4.13
2018-03-17T06:19:41.605Z,4.13
2018-03-17T06:20:40.448Z,4.13
2018-03-17T06:21:41.710Z,4.13
2018-03-17T06:22:41.918Z,4.13
2018-03-17T06:23:43.375Z,4.13
2018-03-17T06:24:44.065Z,4.13
2018-03-17T06:25:44.578Z,4.13
2018-03-17T06:26:46.051Z,4.13
2018-03-17T06:27:48.183Z,4.13
2018-03-17T06:28:47.409Z,4.13
2018-03-17T06:29:48.699Z,4.13
2018-03-17T06:30:49.967Z,4.13
2018-03-17T06:31:50.723Z,4.13
2018-03-17T06:32:51.601Z,4.13
2018-03-17T06:33:52.020Z,4.13
2018-03-17T06:34:53.164Z,4.13
2018-03-17T06:35:54.263Z,4.13
2018-03-17T06:36:56.847Z,4.13
2018-03-17T06:37:56.904Z,4.13
2018-03-17T06:38:58.159Z,4.13
2018-03-17T06:40:00.694Z,4.13
2018-03-17T06:41:00.812Z,4.13
2018-03-17T06:42:02.177Z,4.13
2018-03-17T06:43:02.311Z,4.13
2018-03-17T06:44:03.073Z,4.13
2018-03-17T06:45:03.812Z,4.13
2018-03-17T06:46:06.154Z,4.13
2018-03-17T06:47:07.698Z,4.13
2018-03-17T06:48:08.528Z,4.13
2018-03-17T06:49:08.629Z,4.13
2018-03-17T06:50:09.007Z,4.13
2018-03-17T06:51:10.302Z,4.13
2018-03-17T06:52:11.255Z,4.13
2018-03-17T06:53:11.598Z,4.13
2018-03-17T06:54:14.615Z,4.13
2018-03-17T06:55:13.578Z,4.13
2018-03-17T06:56:15.897Z,4.13
2018-03-17T06:57:19.222Z,4.13
2018-03-17T06:58:16.537Z,4.13
2018-03-17T06:59:17.776Z,4.13
2018-03-17T07:00:19.445Z,4.13
2018-03-17T07:01:42.522Z,4.13
2018-03-17T07:02:22.758Z,4.13
2018-03-17T07:03:22.611Z,4.13
2018-03-17T07:04:22.827Z,4.13
2018-03-17T07:05:24.167Z,4.13
2018-03-17T07:06:24.552Z,4.13
2018-03-17T07:07:25.570Z,4.13
2018-03-17T07:08:26.820Z,4.13
2018-03-17T07:09:30.262Z,4.13
2018-03-17T07:10:28.807Z,4.13
2018-03-17T07:11:32.280Z,4.13
2018-03-17T07:12:30.337Z,4.13
2018-03-17T07:13:31.786Z,4.13
2018-03-17T07:14:33.296Z,4.13
2018-03-17T07:15:33.489Z,4.13
2018-03-17T07:16:34.359Z,4.13
2018-03-17T07:17:36.672Z,4.13
2018-03-17T07:18:37.035Z,4.13
2018-03-17T07:19:38.872Z,4.13
2018-03-17T07:20:39.118Z,4.13
2018-03-17T07:21:40.463Z,4.13
2018-03-17T07:22:41.752Z,4.13
2018-03-17T07:23:41.410Z,4.13
2018-03-17T07:24:42.709Z,4.13
2018-03-17T07:25:43.472Z,4.13
2018-03-17T07:26:45.491Z,4.13
2018-03-17T07:27:48.726Z,4.13
2018-03-17T07:28:47.169Z,4.13
2018-03-17T07:29:48.107Z,4.13
2018-03-17T07:30:48.703Z,4.13
2018-03-17T07:31:53.002Z,4.13
2018-03-17T07:32:51.081Z,4.13
2018-03-17T07:33:51.577Z,4.13
2018-03-17T07:34:51.828Z,4.13
2018-03-17T07:35:54.498Z,4.13
2018-03-17T07:36:55.115Z,4.13
2018-03-17T07:38:13.627Z,4.13
2018-03-17T07:38:56.052Z,4.13
2018-03-17T07:39:57.689Z,4.13
2018-03-17T07:40:58.516Z,4.13
2018-03-17T07:41:59.622Z,4.13
2018-03-17T07:43:00.768Z,4.13
2018-03-17T07:44:02.076Z,4.13
2018-03-17T07:45:02.871Z,4.13
2018-03-17T07:46:04.353Z,4.13
2018-03-17T07:47:03.977Z,4.13
2018-03-17T07:48:06.334Z,4.13
2018-03-17T07:49:07.292Z,4.13
2018-03-17T07:50:07.546Z,4.13
2018-03-17T07:51:09.117Z,4.13
2018-03-17T07:52:10.894Z,4.13
2018-03-17T07:53:10.205Z,4.13
2018-03-17T07:54:12.482Z,4.13
2018-03-17T07:55:12.735Z,4.13
2018-03-17T07:56:14.153Z,4.13
2018-03-17T07:57:14.364Z,4.13
2018-03-17T07:58:15.158Z,4.13
2018-03-17T07:59:16.663Z,4.13
2018-03-17T08:00:16.948Z,4.13
2018-03-17T08:01:18.242Z,4.13
2018-03-17T08:02:20.106Z,4.13
2018-03-17T08:03:21.438Z,4.13
2018-03-17T08:04:22.204Z,4.13
2018-03-17T08:05:22.853Z,4.13
2018-03-17T08:06:24.859Z,4.13
2018-03-17T08:07:24.484Z,4.13
2018-03-17T08:08:25.923Z,4.13
2018-03-17T08:09:28.468Z,4.13
2018-03-17T08:10:28.674Z,4.13
2018-03-17T08:11:30.160Z,4.13
2018-03-17T08:12:30.989Z,4.06
2018-03-17T08:13:31.968Z,4.13
2018-03-17T08:14:31.989Z,4.13
2018-03-17T08:15:32.528Z,4.13
2018-03-17T08:16:33.666Z,4.13
2018-03-17T08:17:34.384Z,4.13
2018-03-17T08:18:35.389Z,4.13
2018-03-17T08:19:36.952Z,4.13
2018-03-17T08:20:37.940Z,4.13
2018-03-17T08:21:40.455Z,4.13
2018-03-17T08:22:39.352Z,4.13
2018-03-17T08:23:40.786Z,4.13
2018-03-17T08:24:41.665Z,4.13
2018-03-17T08:25:43.018Z,4.13
2018-03-17T08:26:44.786Z,4.13
2018-03-17T08:27:44.799Z,4.13
2018-03-17T08:28:48.727Z,4.13
2018-03-17T08:29:48.684Z,4.13
2018-03-17T08:30:48.899Z,4.13
2018-03-17T08:31:49.767Z,4.13
2018-03-17T08:32:49.880Z,4.13
2018-03-17T08:33:51.839Z,4.13
2018-03-17T08:34:51.957Z,4.13
2018-03-17T08:35:53.882Z,4.13
2018-03-17T08:36:54.201Z,4.13
2018-03-17T08:37:55.563Z,4.13
2018-03-17T08:38:56.342Z,4.13
2018-03-17T08:39:58.418Z,4.13
2018-03-17T08:40:58.030Z,4.13
2018-03-17T08:41:58.354Z,4.13
2018-03-17T08:42:59.260Z,4.13
2018-03-17T08:44:01.249Z,4.13
2018-03-17T08:45:03.370Z,4.13
2018-03-17T08:46:02.546Z,4.13
2018-03-17T08:47:05.344Z,4.13
2018-03-17T08:48:07.318Z,4.13
2018-03-17T08:49:05.362Z,4.13
2018-03-17T08:50:07.879Z,4.13
2018-03-17T08:51:07.323Z,4.13
2018-03-17T08:52:08.801Z,4.13
2018-03-17T08:53:09.398Z,4.13
2018-03-17T08:54:11.389Z,4.13
2018-03-17T08:55:14.160Z,4.13
2018-03-17T08:56:13.342Z,4.13
2018-03-17T08:57:13.836Z,4.13
2018-03-17T08:58:16.050Z,4.13
2018-03-17T08:59:16.844Z,4.13
2018-03-17T09:00:18.015Z,4.13
2018-03-17T09:01:19.840Z,4.13
2018-03-17T09:02:19.502Z,4.13
2018-03-17T09:03:20.034Z,4.19
2018-03-17T09:04:21.325Z,4.13
2018-03-17T09:05:23.972Z,4.13
2018-03-17T09:06:23.424Z,4.19
2018-03-17T09:07:24.764Z,4.13
2018-03-17T09:08:25.762Z,4.19
2018-03-17T09:09:27.371Z,4.19
2018-03-17T09:10:28.895Z,4.19
2018-03-17T09:11:30.843Z,4.19
2018-03-17T09:12:31.003Z,4.19
2018-03-17T09:13:31.151Z,4.19
2018-03-17T09:14:31.813Z,4.19
2018-03-17T09:15:33.238Z,4.19
2018-03-17T09:16:35.512Z,4.19
2018-03-17T09:17:35.098Z,4.19
2018-03-17T09:18:36.325Z,4.19
2018-03-17T09:19:37.248Z,4.19
2018-03-17T09:20:38.050Z,4.19
2018-03-17T09:21:38.798Z,4.19
2018-03-17T09:22:39.950Z,4.19
2018-03-17T09:23:40.940Z,4.19
2018-03-17T09:24:41.265Z,4.19
2018-03-17T09:25:43.630Z,4.19
2018-03-17T09:26:44.606Z,4.19
2018-03-17T09:27:44.732Z,4.19
2018-03-17T09:28:44.948Z,4.19
2018-03-17T09:29:46.703Z,4.19
2018-03-17T09:30:48.116Z,4.19
2018-03-17T09:33:13.893Z,4.25
2018-03-17T09:33:17.084Z,4.19
2018-03-17T09:34:20.245Z,4.25
2018-03-17T09:35:21.702Z,4.25
2018-03-17T09:36:23.991Z,4.25
2018-03-17T09:37:22.901Z,4.25
2018-03-17T09:38:23.068Z,4.25
2018-03-17T09:39:24.218Z,4.25
2018-03-17T09:40:26.082Z,4.25
2018-03-17T09:41:26.793Z,4.25
2018-03-17T09:42:27.112Z,4.25
2018-03-17T09:43:28.776Z,4.25
2018-03-17T09:44:31.157Z,4.25
2018-03-17T09:45:32.160Z,4.25
2018-03-17T09:46:35.133Z,4.25
2018-03-17T09:47:33.088Z,4.25
2018-03-17T09:48:34.431Z,4.31
2018-03-17T09:49:35.330Z,4.25
2018-03-17T09:50:36.395Z,4.31
2018-03-17T09:51:38.387Z,4.25
2018-03-17T09:52:38.572Z,4.25
2018-03-17T09:53:39.953Z,4.31
2018-03-17T09:54:39.237Z,4.31
2018-03-17T09:55:42.763Z,4.31
2018-03-17T09:56:42.920Z,4.31
2018-03-17T09:57:42.727Z,4.31
2018-03-17T09:58:43.573Z,4.31
2018-03-17T09:59:44.680Z,4.31
2018-03-17T10:00:45.687Z,4.31
2018-03-17T10:01:46.303Z,4.31
2018-03-17T10:02:48.689Z,4.31
2018-03-17T10:03:48.708Z,4.31
2018-03-17T10:04:49.891Z,4.31
2018-03-17T10:05:52.067Z,4.31
2018-03-17T10:06:52.109Z,4.31
2018-03-17T10:07:53.047Z,4.31
2018-03-17T10:08:54.929Z,4.31
2018-03-17T10:09:57.253Z,4.31
2018-03-17T10:10:56.676Z,4.31
2018-03-17T10:11:57.994Z,4.31
2018-03-17T10:12:58.385Z,4.31
2018-03-17T10:13:59.044Z,4.31
2018-03-17T10:15:00.793Z,4.31
2018-03-17T10:16:02.197Z,4.38
2018-03-17T10:17:03.850Z,4.38
2018-03-17T10:18:03.288Z,4.31
2018-03-17T10:19:04.739Z,4.31
2018-03-17T10:20:05.629Z,4.38
2018-03-17T10:21:05.456Z,4.38
2018-03-17T10:22:07.504Z,4.38
2018-03-17T10:23:09.562Z,4.31
2018-03-17T10:24:08.656Z,4.31
2018-03-17T10:25:10.142Z,4.38
2018-03-17T10:26:11.591Z,4.38
2018-03-17T10:27:13.423Z,4.31
2018-03-17T10:28:12.645Z,4.31
2018-03-17T10:29:13.151Z,4.31
2018-03-17T10:30:14.183Z,4.31
2018-03-17T10:31:15.190Z,4.31
2018-03-17T10:32:17.045Z,4.31
2018-03-17T10:33:17.887Z,4.31
2018-03-17T10:34:19.233Z,4.31
2018-03-17T10:35:20.528Z,4.31
2018-03-17T10:36:21.810Z,4.31
2018-03-17T10:37:22.929Z,4.31
2018-03-17T10:38:23.638Z,4.31
2018-03-17T10:39:23.914Z,4.31
2018-03-17T10:40:25.375Z,4.31
2018-03-17T10:41:30.006Z,4.31
2018-03-17T10:42:27.433Z,4.31
2018-03-17T10:43:28.265Z,4.31
2018-03-17T10:44:28.689Z,4.31
2018-03-17T10:45:30.160Z,4.31
2018-03-17T10:46:30.572Z,4.25
2018-03-17T10:47:31.956Z,4.25
2018-03-17T10:48:33.830Z,4.25
2018-03-17T10:49:37.728Z,4.25
2018-03-17T10:50:38.667Z,4.25
2018-03-17T10:51:38.086Z,4.25
2018-03-17T10:52:39.173Z,4.25
2018-03-17T10:53:39.745Z,4.25
2018-03-17T10:54:41.133Z,4.25
2018-03-17T10:55:41.835Z,4.25
2018-03-17T10:57:11.003Z,4.25
2018-03-17T10:57:58.758Z,4.25
2018-03-17T10:58:44.831Z,4.25
2018-03-17T10:59:45.077Z,4.25
2018-03-17T11:00:47.305Z,4.25
2018-03-17T11:01:46.804Z,4.25
2018-03-17T11:02:49.322Z,4.25
2018-03-17T11:03:50.142Z,4.25
2018-03-17T11:04:49.595Z,4.25
2018-03-17T11:05:50.318Z,4.25
2018-03-17T11:06:52.953Z,4.25
2018-03-17T11:07:52.237Z,4.25
2018-03-17T11:08:55.603Z,4.25
2018-03-17T11:09:56.252Z,4.25
2018-03-17T11:10:55.840Z,4.25
2018-03-17T11:11:56.050Z,4.25
2018-03-17T11:12:57.950Z,4.25
2018-03-17T11:13:59.729Z,4.25
2018-03-17T11:15:02.136Z,4.25
2018-03-17T11:16:00.954Z,4.25
2018-03-17T11:17:02.684Z,4.25
2018-03-17T11:18:04.560Z,4.25
2018-03-17T11:19:04.231Z,4.25
2018-03-17T11:20:05.592Z,4.25
2018-03-17T11:21:09.982Z,4.25
2018-03-17T11:22:10.166Z,4.31
2018-03-17T11:23:59.372Z,4.25
2018-03-17T11:24:08.690Z,4.31
2018-03-17T11:25:10.828Z,4.31
2018-03-17T11:26:14.144Z,4.31
2018-03-17T11:27:13.857Z,4.31
2018-03-17T11:28:12.596Z,4.31
2018-03-17T11:29:13.897Z,4.31
2018-03-17T11:30:15.656Z,4.31
2018-03-17T11:31:18.398Z,4.31
2018-03-17T11:32:17.649Z,4.31
2018-03-17T11:33:18.268Z,4.31
2018-03-17T11:34:19.641Z,4.31
2018-03-17T11:35:23.265Z,4.31
2018-03-17T11:36:22.268Z,4.31
2018-03-17T11:37:22.845Z,4.31
2018-03-17T11:38:23.976Z,4.31
2018-03-17T11:39:24.310Z,4.31
2018-03-17T11:40:24.791Z,4.31
2018-03-17T11:41:27.712Z,4.31
2018-03-17T11:42:27.431Z,4.31
2018-03-17T11:43:28.783Z,4.31
2018-03-17T11:44:30.429Z,4.38
2018-03-17T11:45:29.841Z,4.38
2018-03-17T11:46:33.153Z,4.31
2018-03-17T11:47:32.396Z,4.38
2018-03-17T11:48:32.808Z,4.38
2018-03-17T11:49:36.649Z,4.38
2018-03-17T11:50:36.896Z,4.38
2018-03-17T11:51:35.707Z,4.38
2018-03-17T11:52:36.585Z,4.44
2018-03-17T11:53:38.139Z,4.38
2018-03-17T11:54:38.904Z,4.38
2018-03-17T11:55:40.830Z,4.38
2018-03-17T11:56:41.566Z,4.44
2018-03-17T11:57:41.254Z,4.44
2018-03-17T11:58:42.930Z,4.44
2018-03-17T11:59:44.447Z,4.44
2018-03-17T12:00:46.866Z,4.44
2018-03-17T12:01:48.876Z,4.5
2018-03-17T12:02:47.890Z,4.5
2018-03-17T12:03:47.718Z,4.44
2018-03-17T12:06:15.430Z,4.44
2018-03-17T12:15:34.226Z,4.5
2018-03-17T12:17:28.787Z,4.56
2018-03-17T12:20:33.202Z,4.56
2018-03-17T12:22:07.388Z,4.63
2018-03-17T12:24:38.835Z,4.63
2018-03-17T12:27:35.028Z,4.63
2018-03-17T12:32:07.785Z,4.69
2018-03-17T12:36:16.231Z,4.69
2018-03-17T12:39:37.814Z,4.69
2018-03-17T12:41:28.662Z,4.75
2018-03-17T12:44:30.456Z,4.75
2018-03-17T12:46:03.562Z,4.75
2018-03-17T12:48:58.026Z,4.75
2018-03-17T12:56:18.765Z,4.75
2018-03-17T12:57:59.037Z,4.81
2018-03-17T13:04:09.414Z,4.81
2018-03-17T13:06:53.958Z,4.81
2018-03-17T13:18:14.486Z,4.81
2018-03-17T13:21:18.890Z,4.81
2018-03-17T13:22:47.733Z,4.75
2018-03-17T13:25:35.429Z,4.75
2018-03-17T13:29:22.455Z,4.81
2018-03-17T13:32:16.184Z,4.81
2018-03-17T13:36:38.679Z,4.75
2018-03-17T13:39:42.248Z,4.75
2018-03-17T13:41:26.487Z,4.81
2018-03-17T13:44:55.848Z,4.75
2018-03-17T13:46:31.159Z,4.75
2018-03-17T13:49:24.055Z,4.75
2018-03-17T13:53:53.239Z,4.69
2018-03-17T13:56:47.288Z,4.69
2018-03-17T13:58:29.623Z,4.69
2018-03-17T14:01:40.504Z,4.69
2018-03-17T14:05:34.584Z,4.69
2018-03-17T14:08:06.200Z,4.69
2018-03-17T14:09:32.616Z,4.69
2018-03-17T14:16:24.888Z,4.63
2018-03-17T14:19:09.640Z,4.63
2018-03-17T14:20:38.808Z,4.63
2018-03-17T14:23:36.535Z,4.63
2018-03-17T14:27:39.037Z,4.63
2018-03-17T14:30:20.069Z,4.63
2018-03-17T14:35:14.989Z,4.56
2018-03-17T14:44:37.802Z,4.56
2018-03-17T14:45:47.962Z,4.56
2018-03-17T14:51:12.457Z,4.56
2018-03-17T14:52:15.725Z,4.5
2018-03-17T14:58:35.336Z,4.5
2018-03-17T15:01:31.016Z,4.5
2018-03-17T15:05:16.373Z,4.31
2018-03-17T15:15:53.346Z,4.31
2018-03-17T15:16:56.393Z,4.25
2018-03-17T15:31:01.380Z,4.25
2018-03-17T15:35:30.789Z,4.25
2018-03-17T15:38:47.316Z,4.25
2018-03-17T15:42:34.016Z,4.31
2018-03-17T15:45:40.974Z,4.31
2018-03-17T15:47:08.558Z,4.25
2018-03-17T15:49:41.231Z,4.31
2018-03-17T15:53:48.700Z,4.31
2018-03-17T15:56:16.843Z,4.31
2018-03-17T16:00:54.300Z,4.31
2018-03-17T16:02:33.121Z,4.31
2018-03-17T16:04:16.045Z,4.31
2018-03-17T16:10:58.676Z,4.31
2018-03-17T16:14:05.411Z,4.31
2018-03-17T16:15:37.188Z,4.31
2018-03-17T16:18:02.517Z,4.31
2018-03-17T16:20:58.051Z,4.31
2018-03-17T16:22:05.456Z,4.31
2018-03-17T16:25:00.479Z,4.31
2018-03-17T16:30:00.527Z,4.31
2018-03-17T16:46:22.344Z,4.38
2018-03-17T16:49:16.072Z,4.38
2018-03-17T16:56:57.880Z,4.38
2018-03-17T16:58:29.096Z,4.38
2018-03-17T17:04:33.577Z,4.44
2018-03-17T17:06:53.434Z,4.44
2018-03-17T17:09:58.650Z,4.44
2018-03-17T17:18:32.848Z,4.44
2018-03-17T17:23:02.080Z,4.44
2018-03-17T17:25:37.616Z,4.44
2018-03-17T17:32:16.198Z,4.5
2018-03-17T17:33:47.830Z,4.5
2018-03-17T17:39:08.166Z,4.56
2018-03-17T17:40:14.367Z,4.56